Monett, MO

12:19 PM CST on December 06, 2019 (GMT -0600)
Monett

Weather History for KHFJ - August, 2019

Change the Weather History Date:

Saturday, August 10, 2019

  Actual Average (WUND) Record (WUND)
Temperature  
Mean Temperature 80 °F -  
Max Temperature 89 °F - - (-1)
Min Temperature 71 °F - - (-1)
Cooling Degree Days 15    
Growing Degree Days 30 (Base 50)    
Moisture  
Dew Point 76 °F    
Average Humidity 87    
Maximum Humidity 100    
Minimum Humidity 59    
Precipitation  
Precipitation 0.00 in - - ()
Sea Level Pressure  
Sea Level Pressure 29.96 in    
Wind  
Wind Speed 3 mph ()    
Max Wind Speed 8 mph    
Max Gust Speed -    
Visibility 9.0 miles    
Events      
Averages and records for this station are not official NWS values.
T = Trace of Precipitation, MM = Missing Value Source: Averaged Metar Reports

Daily Weather History Graph

Daily Weather History Graph

Search for Another Location

Airport or City:

Astronomy

Aug. 10, 2019 Rise Set
Actual Time 6:28 AM CDT 8:13 PM CDT
Civil Twilight 6:00 AM CDT 8:41 PM CDT
Nautical Twilight 5:26 AM CDT 9:15 PM CDT
Astronomical Twilight 4:50 AM CDT 9:50 PM CDT
Moon 4:53 PM CDT (8/10) 2:07 AM CDT (8/10)
Length of Visible Light 14h 40m
Length of Day
13h 44m
Waxing Gibbous, 79% of the Moon is Illuminated
Aug 10
Waxing Gibbous
Aug 15
Full
Aug 23
Last Quarter
Aug 30
New
Sep 5
First Quarter

Hourly Weather History & Observations

Time (CDT) Temp. Heat Index Dew Point Humidity Pressure Visibility Wind Dir Wind Speed Gust Speed Precip Events Conditions
12:15 AM 73.4 °F - 73.4 °F 100% 29.99 in 10.0 mi ESE 3.5 mph - N/A   Clear
12:55 AM 73.4 °F - 73.4 °F 100% 29.99 in 10.0 mi SE 3.5 mph - N/A   Clear
1:15 AM 73.4 °F - 73.4 °F 100% 29.99 in 10.0 mi Calm Calm - N/A   Clear
1:35 AM 73.4 °F - 73.4 °F 100% 29.97 in 7.0 mi Calm Calm - N/A   Clear
1:55 AM 73.4 °F - 73.4 °F 100% 29.97 in 7.0 mi Calm Calm - N/A   Clear
2:35 AM 73.4 °F - 73.4 °F 100% 29.95 in 7.0 mi Calm Calm - N/A   Clear
2:55 AM 71.6 °F - 71.6 °F 100% 29.95 in 7.0 mi East 3.5 mph - N/A   Clear
3:15 AM 73.4 °F - 73.4 °F 100% 29.95 in 7.0 mi East 4.6 mph - N/A   Clear
3:35 AM 71.6 °F - 71.6 °F 100% 29.95 in 7.0 mi East 3.5 mph - N/A   Clear
3:55 AM 71.6 °F - 71.6 °F 100% 29.95 in 7.0 mi Calm Calm - N/A   Clear
4:15 AM 71.6 °F - 71.6 °F 100% 29.96 in 5.0 mi Calm Calm - N/A   Clear
4:35 AM 71.6 °F - 71.6 °F 100% 29.96 in 4.0 mi Calm Calm - N/A   Clear
4:55 AM 71.6 °F - 71.6 °F 100% 29.96 in 4.0 mi ESE 3.5 mph - N/A   Clear
5:15 AM 71.6 °F - 71.6 °F 100% 29.96 in 4.0 mi SE 4.6 mph - N/A   Clear
5:35 AM 71.6 °F - 71.6 °F 100% 29.96 in 4.0 mi ESE 5.8 mph - N/A   Scattered Clouds
5:55 AM 71.6 °F - 71.6 °F 100% 29.97 in 7.0 mi SE 3.5 mph - N/A   Clear
6:15 AM 71.6 °F - 71.6 °F 100% 29.97 in 7.0 mi SE 3.5 mph - N/A   Clear
6:55 AM 71.6 °F - 71.6 °F 100% 29.99 in 5.0 mi SE 4.6 mph - N/A   Clear
7:15 AM 71.6 °F - 71.6 °F 100% 29.98 in 7.0 mi SE 4.6 mph - N/A   Clear
7:35 AM 73.4 °F - 73.4 °F 100% 29.99 in 10.0 mi SE 4.6 mph - N/A   Clear
7:55 AM 73.4 °F - 73.4 °F 100% 29.98 in 10.0 mi SSE 4.6 mph - N/A   Scattered Clouds
8:15 AM 75.2 °F - 75.2 °F 100% 29.98 in 10.0 mi SSE 4.6 mph - N/A   Scattered Clouds
8:35 AM 77.0 °F - 77.0 °F 100% 29.99 in 10.0 mi SSE 5.8 mph - N/A   Clear
8:55 AM 77.0 °F - 77.0 °F 100% 29.99 in 10.0 mi SSE 6.9 mph - N/A   Scattered Clouds
9:35 AM 78.8 °F - 77.0 °F 94% 30.00 in 10.0 mi South 5.8 mph - N/A   Scattered Clouds
9:55 AM 78.8 °F - 77.0 °F 94% 29.99 in 10.0 mi South 5.8 mph - N/A   Mostly Cloudy
10:15 AM 80.6 °F 87.1 °F 77.0 °F 89% 29.99 in 10.0 mi SSE 5.8 mph - N/A   Mostly Cloudy
10:35 AM 80.6 °F 87.1 °F 77.0 °F 89% 30.00 in 10.0 mi SSE 5.8 mph - N/A   Overcast
10:55 AM 80.6 °F 87.1 °F 77.0 °F 89% 29.99 in 10.0 mi SSE 6.9 mph - N/A   Overcast
11:15 AM 82.4 °F 90.9 °F 77.0 °F 84% 29.99 in 10.0 mi SSE 6.9 mph - N/A   Mostly Cloudy
11:35 AM 82.4 °F 90.9 °F 77.0 °F 84% 29.99 in 10.0 mi South 6.9 mph - N/A   Mostly Cloudy
12:15 PM 86.0 °F 99.3 °F 78.8 °F 79% 29.98 in 10.0 mi SSE 5.8 mph - N/A   Mostly Cloudy
12:35 PM 86.0 °F 96.9 °F 77.0 °F 74% 29.98 in 10.0 mi South 5.8 mph - N/A   Overcast
12:55 PM 86.0 °F 96.9 °F 77.0 °F 74% 29.98 in 10.0 mi South 5.8 mph - N/A   Overcast
1:15 PM 86.0 °F 96.9 °F 77.0 °F 74% 29.97 in 10.0 mi SSE 4.6 mph - N/A   Mostly Cloudy
1:35 PM 86.0 °F 95.1 °F 75.2 °F 70% 29.96 in 10.0 mi South 4.6 mph - N/A   Mostly Cloudy
1:55 PM 87.8 °F 99.7 °F 77.0 °F 70% 29.96 in 10.0 mi South 5.8 mph - N/A   Mostly Cloudy
2:15 PM 87.8 °F 97.6 °F 75.2 °F 66% 29.96 in 10.0 mi South 3.5 mph - N/A   Mostly Cloudy
2:35 PM 87.8 °F 99.7 °F 77.0 °F 70% 29.95 in 10.0 mi South 4.6 mph - N/A   Overcast
2:55 PM 87.8 °F 99.7 °F 77.0 °F 70% 29.95 in 10.0 mi South 4.6 mph - N/A   Mostly Cloudy
3:15 PM 89.6 °F 102.2 °F 77.0 °F 66% 29.95 in 10.0 mi SSW 5.8 mph - N/A   Clear
3:35 PM 89.6 °F 102.2 °F 77.0 °F 66% 29.94 in 10.0 mi South 8.1 mph - N/A   Scattered Clouds
3:55 PM 89.6 °F 99.8 °F 75.2 °F 62% 29.94 in 10.0 mi SW 5.8 mph - N/A   Scattered Clouds
4:15 PM 89.6 °F 98.2 °F 73.4 °F 59% 29.94 in 10.0 mi SSE 4.6 mph - N/A   Mostly Cloudy
4:35 PM 89.6 °F 98.2 °F 73.4 °F 59% 29.93 in 10.0 mi Calm Calm - N/A   Mostly Cloudy
4:55 PM 87.8 °F 95.6 °F 73.4 °F 62% 29.93 in 10.0 mi Calm Calm - N/A   Mostly Cloudy
5:15 PM 89.6 °F 102.2 °F 77.0 °F 66% 29.93 in 10.0 mi South 3.5 mph - N/A   Scattered Clouds
5:35 PM 89.6 °F 102.2 °F 77.0 °F 66% 29.93 in 10.0 mi Calm Calm - N/A   Clear
5:55 PM 89.6 °F 99.8 °F 75.2 °F 62% 29.93 in 10.0 mi SSW 4.6 mph - N/A   Clear
6:15 PM 89.6 °F 99.8 °F 75.2 °F 62% 29.93 in 10.0 mi Calm Calm - N/A   Clear
6:35 PM 87.8 °F 99.7 °F 77.0 °F 70% 29.93 in 10.0 mi South 4.6 mph - N/A   Clear
6:55 PM 87.8 °F 99.7 °F 77.0 °F 70% 29.93 in 10.0 mi SSW 3.5 mph - N/A   Clear
7:15 PM 87.8 °F 99.7 °F 77.0 °F 70% 29.93 in 10.0 mi Calm Calm - N/A   Clear
7:35 PM 86.0 °F 99.3 °F 78.8 °F 79% 29.93 in 10.0 mi South 3.5 mph - N/A   Clear
7:55 PM 86.0 °F 99.3 °F 78.8 °F 79% 29.93 in 10.0 mi Calm Calm - N/A   Scattered Clouds
8:15 PM 84.2 °F 96.1 °F 78.8 °F 84% 29.94 in 10.0 mi Calm Calm - N/A   Clear
8:35 PM 82.4 °F 92.4 °F 78.8 °F 89% 29.94 in 10.0 mi SE 3.5 mph - N/A   Clear
8:55 PM 82.4 °F 92.4 °F 78.8 °F 89% 29.94 in 10.0 mi SE 4.6 mph - N/A   Clear
9:15 PM 80.6 °F 88.1 °F 78.8 °F 94% 29.94 in 10.0 mi SE 6.9 mph - N/A   Clear
9:35 PM 80.6 °F 88.1 °F 78.8 °F 94% 29.95 in 10.0 mi SE 5.8 mph - N/A   Clear
9:55 PM 80.6 °F 88.1 °F 78.8 °F 94% 29.95 in 10.0 mi SE 5.8 mph - N/A   Clear
10:15 PM 80.6 °F 88.1 °F 78.8 °F 94% 29.95 in 10.0 mi SE 4.6 mph - N/A   Clear
10:35 PM 80.6 °F 88.1 °F 78.8 °F 94% 29.96 in 10.0 mi SE 4.6 mph - N/A   Clear
10:55 PM 78.8 °F - 78.8 °F 100% 29.96 in 10.0 mi SE 3.5 mph - N/A   Clear
11:15 PM 78.8 °F - 78.8 °F 100% 29.96 in 10.0 mi SE 3.5 mph - N/A   Clear
11:35 PM 78.8 °F - 78.8 °F 100% 29.97 in 10.0 mi SSE 4.6 mph - N/A   Clear
11:55 PM 78.8 °F - 78.8 °F 100% 29.97 in 10.0 mi SE 4.6 mph - N/A   Clear